sensor_id;sensor_type;location;lat;lon;timestamp;temperature;humidity
5011;DHT22;2524;54.364;10.072;2022-09-30T00:01:18;10.90;99.90
5011;DHT22;2524;54.364;10.072;2022-09-30T00:03:44;10.90;99.90
5011;DHT22;2524;54.364;10.072;2022-09-30T00:06:12;10.90;99.90
5011;DHT22;2524;54.364;10.072;2022-09-30T00:08:38;10.90;99.90
5011;DHT22;2524;54.364;10.072;2022-09-30T00:11:10;10.80;99.90
5011;DHT22;2524;54.364;10.072;2022-09-30T00:13:38;10.80;99.90
5011;DHT22;2524;54.364;10.072;2022-09-30T00:16:05;10.80;99.90
5011;DHT22;2524;54.364;10.072;2022-09-30T00:18:31;10.80;99.90
5011;DHT22;2524;54.364;10.072;2022-09-30T00:20:57;10.80;99.90
5011;DHT22;2524;54.364;10.072;2022-09-30T00:23:24;10.80;99.90
5011;DHT22;2524;54.364;10.072;2022-09-30T00:25:50;10.80;99.90
5011;DHT22;2524;54.364;10.072;2022-09-30T00:28:16;10.80;99.90
5011;DHT22;2524;54.364;10.072;2022-09-30T00:30:41;10.80;99.90
5011;DHT22;2524;54.364;10.072;2022-09-30T00:33:08;10.80;99.90
5011;DHT22;2524;54.364;10.072;2022-09-30T00:35:35;10.80;99.90
5011;DHT22;2524;54.364;10.072;2022-09-30T00:38:00;10.80;99.90
5011;DHT22;2524;54.364;10.072;2022-09-30T00:40:26;10.80;99.90
5011;DHT22;2524;54.364;10.072;2022-09-30T00:42:52;10.80;99.90
5011;DHT22;2524;54.364;10.072;2022-09-30T00:45:18;10.80;99.90
5011;DHT22;2524;54.364;10.072;2022-09-30T00:50:36;10.80;99.90
5011;DHT22;2524;54.364;10.072;2022-09-30T00:53:15;10.80;99.90
5011;DHT22;2524;54.364;10.072;2022-09-30T00:58:32;10.80;99.90
5011;DHT22;2524;54.364;10.072;2022-09-30T01:01:01;10.80;99.90
5011;DHT22;2524;54.364;10.072;2022-09-30T01:03:35;10.70;99.90
5011;DHT22;2524;54.364;10.072;2022-09-30T01:06:02;10.80;99.90
5011;DHT22;2524;54.364;10.072;2022-09-30T01:08:30;10.70;99.90
5011;DHT22;2524;54.364;10.072;2022-09-30T01:10:56;10.80;99.90
5011;DHT22;2524;54.364;10.072;2022-09-30T01:13:24;10.70;99.90
5011;DHT22;2524;54.364;10.072;2022-09-30T01:18:56;10.70;99.90
5011;DHT22;2524;54.364;10.072;2022-09-30T01:21:55;10.80;99.90
5011;DHT22;2524;54.364;10.072;2022-09-30T01:24:55;10.70;99.90
5011;DHT22;2524;54.364;10.072;2022-09-30T01:30:22;10.70;99.90
5011;DHT22;2524;54.364;10.072;2022-09-30T01:36:03;10.70;99.90
5011;DHT22;2524;54.364;10.072;2022-09-30T01:41:21;10.70;99.90
5011;DHT22;2524;54.364;10.072;2022-09-30T01:43:58;10.70;99.90
5011;DHT22;2524;54.364;10.072;2022-09-30T01:46:39;10.70;99.90
5011;DHT22;2524;54.364;10.072;2022-09-30T02:00:05;10.70;99.90
5011;DHT22;2524;54.364;10.072;2022-09-30T02:08:12;10.70;99.90
5011;DHT22;2524;54.364;10.072;2022-09-30T02:10:47;10.70;99.90
5011;DHT22;2524;54.364;10.072;2022-09-30T02:13:19;10.70;99.90
5011;DHT22;2524;54.364;10.072;2022-09-30T02:15:53;10.70;99.90
5011;DHT22;2524;54.364;10.072;2022-09-30T02:18:39;10.60;99.90
5011;DHT22;2524;54.364;10.072;2022-09-30T02:21:08;10.60;99.90
5011;DHT22;2524;54.364;10.072;2022-09-30T02:23:37;10.60;99.90
5011;DHT22;2524;54.364;10.072;2022-09-30T02:26:12;10.70;99.90
5011;DHT22;2524;54.364;10.072;2022-09-30T02:28:43;10.60;99.90
5011;DHT22;2524;54.364;10.072;2022-09-30T02:31:10;10.70;99.90
5011;DHT22;2524;54.364;10.072;2022-09-30T02:33:45;10.70;99.90
5011;DHT22;2524;54.364;10.072;2022-09-30T02:36:21;10.70;99.90
5011;DHT22;2524;54.364;10.072;2022-09-30T02:39:03;10.70;99.90
5011;DHT22;2524;54.364;10.072;2022-09-30T02:41:35;10.70;99.90
5011;DHT22;2524;54.364;10.072;2022-09-30T02:44:03;10.70;99.90
5011;DHT22;2524;54.364;10.072;2022-09-30T02:49:35;10.60;99.90
5011;DHT22;2524;54.364;10.072;2022-09-30T02:52:20;10.60;99.90
5011;DHT22;2524;54.364;10.072;2022-09-30T02:55:20;10.60;99.90
5011;DHT22;2524;54.364;10.072;2022-09-30T02:57:55;10.60;99.90
5011;DHT22;2524;54.364;10.072;2022-09-30T03:00:22;10.60;99.90
5011;DHT22;2524;54.364;10.072;2022-09-30T03:02:50;10.60;99.90
5011;DHT22;2524;54.364;10.072;2022-09-30T03:05:18;10.60;99.90
5011;DHT22;2524;54.364;10.072;2022-09-30T03:07:43;10.60;99.90
5011;DHT22;2524;54.364;10.072;2022-09-30T03:10:17;10.60;99.90
5011;DHT22;2524;54.364;10.072;2022-09-30T03:15:32;10.60;99.90
5011;DHT22;2524;54.364;10.072;2022-09-30T03:30:03;10.60;99.90
5011;DHT22;2524;54.364;10.072;2022-09-30T03:38:10;10.60;99.90
5011;DHT22;2524;54.364;10.072;2022-09-30T03:41:10;10.60;99.90
5011;DHT22;2524;54.364;10.072;2022-09-30T03:48:56;10.60;99.90
5011;DHT22;2524;54.364;10.072;2022-09-30T03:51:23;10.60;99.90
5011;DHT22;2524;54.364;10.072;2022-09-30T03:53:49;10.60;99.90
5011;DHT22;2524;54.364;10.072;2022-09-30T03:56:29;10.60;99.90
5011;DHT22;2524;54.364;10.072;2022-09-30T03:58:56;10.60;99.90
5011;DHT22;2524;54.364;10.072;2022-09-30T04:01:22;10.60;99.90
5011;DHT22;2524;54.364;10.072;2022-09-30T04:03:52;10.60;99.90
5011;DHT22;2524;54.364;10.072;2022-09-30T04:06:23;10.60;99.90
5011;DHT22;2524;54.364;10.072;2022-09-30T04:08:48;10.60;99.90
5011;DHT22;2524;54.364;10.072;2022-09-30T04:11:14;10.60;99.90
5011;DHT22;2524;54.364;10.072;2022-09-30T04:13:40;10.50;99.90
5011;DHT22;2524;54.364;10.072;2022-09-30T04:16:07;10.50;99.90
5011;DHT22;2524;54.364;10.072;2022-09-30T04:18:35;10.60;99.90
5011;DHT22;2524;54.364;10.072;2022-09-30T04:21:07;10.50;99.90
5011;DHT22;2524;54.364;10.072;2022-09-30T04:23:39;10.50;99.90
5011;DHT22;2524;54.364;10.072;2022-09-30T04:26:07;10.50;99.90
5011;DHT22;2524;54.364;10.072;2022-09-30T04:28:35;10.50;99.90
5011;DHT22;2524;54.364;10.072;2022-09-30T04:31:02;10.50;99.90
5011;DHT22;2524;54.364;10.072;2022-09-30T04:33:28;10.50;99.90
5011;DHT22;2524;54.364;10.072;2022-09-30T04:35:58;10.50;99.90
5011;DHT22;2524;54.364;10.072;2022-09-30T04:38:25;10.50;99.90
5011;DHT22;2524;54.364;10.072;2022-09-30T04:40:51;10.50;99.90
5011;DHT22;2524;54.364;10.072;2022-09-30T04:43:19;10.50;99.90
5011;DHT22;2524;54.364;10.072;2022-09-30T04:45:47;10.50;99.90
5011;DHT22;2524;54.364;10.072;2022-09-30T04:48:13;10.60;99.90
5011;DHT22;2524;54.364;10.072;2022-09-30T04:50:39;10.60;99.90
5011;DHT22;2524;54.364;10.072;2022-09-30T04:53:10;10.60;99.90
5011;DHT22;2524;54.364;10.072;2022-09-30T04:55:36;10.60;99.90
5011;DHT22;2524;54.364;10.072;2022-09-30T04:58:02;10.60;99.90
5011;DHT22;2524;54.364;10.072;2022-09-30T05:00:27;10.70;99.90
5011;DHT22;2524;54.364;10.072;2022-09-30T05:02:53;10.60;99.90
5011;DHT22;2524;54.364;10.072;2022-09-30T05:05:19;10.70;99.90
5011;DHT22;2524;54.364;10.072;2022-09-30T05:07:44;10.60;99.90
5011;DHT22;2524;54.364;10.072;2022-09-30T05:10:11;10.60;99.90
5011;DHT22;2524;54.364;10.072;2022-09-30T05:12:37;10.70;99.90
5011;DHT22;2524;54.364;10.072;2022-09-30T05:15:04;10.70;99.90
5011;DHT22;2524;54.364;10.072;2022-09-30T05:17:30;10.60;99.90
5011;DHT22;2524;54.364;10.072;2022-09-30T05:19:57;10.60;99.90
5011;DHT22;2524;54.364;10.072;2022-09-30T05:22:23;10.60;99.90
5011;DHT22;2524;54.364;10.072;2022-09-30T05:24:50;10.60;99.90
5011;DHT22;2524;54.364;10.072;2022-09-30T05:27:16;10.60;99.90
5011;DHT22;2524;54.364;10.072;2022-09-30T05:29:42;10.60;99.90
5011;DHT22;2524;54.364;10.072;2022-09-30T05:32:08;10.60;99.90
5011;DHT22;2524;54.364;10.072;2022-09-30T05:34:34;10.70;99.90
5011;DHT22;2524;54.364;10.072;2022-09-30T05:36:59;10.70;99.90
5011;DHT22;2524;54.364;10.072;2022-09-30T05:39:25;10.70;99.90
5011;DHT22;2524;54.364;10.072;2022-09-30T05:41:50;10.70;99.90
5011;DHT22;2524;54.364;10.072;2022-09-30T05:44:16;10.60;99.90
5011;DHT22;2524;54.364;10.072;2022-09-30T05:46:43;10.60;99.90
5011;DHT22;2524;54.364;10.072;2022-09-30T05:49:09;10.70;99.90
5011;DHT22;2524;54.364;10.072;2022-09-30T05:51:34;10.60;99.90
5011;DHT22;2524;54.364;10.072;2022-09-30T05:54:00;10.60;99.90
5011;DHT22;2524;54.364;10.072;2022-09-30T05:56:26;10.60;99.90
5011;DHT22;2524;54.364;10.072;2022-09-30T05:58:52;10.70;99.90
5011;DHT22;2524;54.364;10.072;2022-09-30T06:01:17;10.70;99.90
5011;DHT22;2524;54.364;10.072;2022-09-30T06:03:43;10.60;99.90
5011;DHT22;2524;54.364;10.072;2022-09-30T06:06:10;10.60;99.90
5011;DHT22;2524;54.364;10.072;2022-09-30T06:08:35;10.60;99.90
5011;DHT22;2524;54.364;10.072;2022-09-30T06:11:10;10.60;99.90
5011;DHT22;2524;54.364;10.072;2022-09-30T06:13:36;10.60;99.90
5011;DHT22;2524;54.364;10.072;2022-09-30T06:16:02;10.70;99.90
5011;DHT22;2524;54.364;10.072;2022-09-30T06:18:30;10.60;99.90
5011;DHT22;2524;54.364;10.072;2022-09-30T06:20:57;10.60;99.90
5011;DHT22;2524;54.364;10.072;2022-09-30T06:23:23;10.60;99.90
5011;DHT22;2524;54.364;10.072;2022-09-30T06:25:50;10.60;99.90
5011;DHT22;2524;54.364;10.072;2022-09-30T06:28:16;10.60;99.90
5011;DHT22;2524;54.364;10.072;2022-09-30T06:30:43;10.60;99.90
5011;DHT22;2524;54.364;10.072;2022-09-30T06:33:08;10.60;99.90
5011;DHT22;2524;54.364;10.072;2022-09-30T06:35:34;10.70;99.90
5011;DHT22;2524;54.364;10.072;2022-09-30T06:38:00;10.60;99.90
5011;DHT22;2524;54.364;10.072;2022-09-30T06:40:25;10.60;99.90
5011;DHT22;2524;54.364;10.072;2022-09-30T06:42:57;10.70;99.90
5011;DHT22;2524;54.364;10.072;2022-09-30T06:45:24;10.70;99.90
5011;DHT22;2524;54.364;10.072;2022-09-30T06:47:49;10.70;99.90
5011;DHT22;2524;54.364;10.072;2022-09-30T06:50:16;10.70;99.90
5011;DHT22;2524;54.364;10.072;2022-09-30T06:52:42;10.70;99.90
5011;DHT22;2524;54.364;10.072;2022-09-30T06:55:08;10.70;99.90
5011;DHT22;2524;54.364;10.072;2022-09-30T06:57:33;10.70;99.90
5011;DHT22;2524;54.364;10.072;2022-09-30T07:00:00;10.80;99.90
5011;DHT22;2524;54.364;10.072;2022-09-30T07:02:26;10.70;99.90
5011;DHT22;2524;54.364;10.072;2022-09-30T07:04:53;10.70;99.90
5011;DHT22;2524;54.364;10.072;2022-09-30T07:07:20;10.80;99.90
5011;DHT22;2524;54.364;10.072;2022-09-30T07:09:46;10.80;99.90
5011;DHT22;2524;54.364;10.072;2022-09-30T07:12:12;10.80;99.90
5011;DHT22;2524;54.364;10.072;2022-09-30T07:14:37;10.80;99.90
5011;DHT22;2524;54.364;10.072;2022-09-30T07:17:04;10.80;99.90
5011;DHT22;2524;54.364;10.072;2022-09-30T07:19:31;10.80;99.90
5011;DHT22;2524;54.364;10.072;2022-09-30T07:21:58;10.80;99.90
5011;DHT22;2524;54.364;10.072;2022-09-30T07:24:42;10.90;99.90
5011;DHT22;2524;54.364;10.072;2022-09-30T07:27:08;10.90;99.90
5011;DHT22;2524;54.364;10.072;2022-09-30T07:29:33;10.90;99.90
5011;DHT22;2524;54.364;10.072;2022-09-30T07:31:59;10.90;99.90
5011;DHT22;2524;54.364;10.072;2022-09-30T07:34:25;10.90;99.90
5011;DHT22;2524;54.364;10.072;2022-09-30T07:36:50;11.00;99.90
5011;DHT22;2524;54.364;10.072;2022-09-30T07:39:16;10.90;99.90
5011;DHT22;2524;54.364;10.072;2022-09-30T07:41:41;11.00;99.90
5011;DHT22;2524;54.364;10.072;2022-09-30T07:44:11;11.00;99.90
5011;DHT22;2524;54.364;10.072;2022-09-30T07:46:38;11.10;99.90
5011;DHT22;2524;54.364;10.072;2022-09-30T07:49:06;11.00;99.90
5011;DHT22;2524;54.364;10.072;2022-09-30T07:51:38;11.10;99.90
5011;DHT22;2524;54.364;10.072;2022-09-30T07:54:11;11.20;99.90
5011;DHT22;2524;54.364;10.072;2022-09-30T07:56:38;11.10;99.90
5011;DHT22;2524;54.364;10.072;2022-09-30T07:59:04;11.10;99.90
5011;DHT22;2524;54.364;10.072;2022-09-30T08:01:31;11.10;99.90
5011;DHT22;2524;54.364;10.072;2022-09-30T08:03:59;11.10;99.90
5011;DHT22;2524;54.364;10.072;2022-09-30T08:06:26;11.10;99.90
5011;DHT22;2524;54.364;10.072;2022-09-30T08:08:54;11.20;99.90
5011;DHT22;2524;54.364;10.072;2022-09-30T08:11:20;11.20;99.90
5011;DHT22;2524;54.364;10.072;2022-09-30T08:14:04;11.20;99.90
5011;DHT22;2524;54.364;10.072;2022-09-30T08:16:30;11.20;99.90
5011;DHT22;2524;54.364;10.072;2022-09-30T08:19:00;11.20;99.90
5011;DHT22;2524;54.364;10.072;2022-09-30T08:21:27;11.30;99.90
5011;DHT22;2524;54.364;10.072;2022-09-30T08:23:53;11.30;99.90
5011;DHT22;2524;54.364;10.072;2022-09-30T08:26:19;11.30;99.90
5011;DHT22;2524;54.364;10.072;2022-09-30T08:28:45;11.40;99.90
5011;DHT22;2524;54.364;10.072;2022-09-30T08:31:19;11.30;99.90
5011;DHT22;2524;54.364;10.072;2022-09-30T08:33:45;11.30;99.90
5011;DHT22;2524;54.364;10.072;2022-09-30T08:36:13;11.40;99.90
5011;DHT22;2524;54.364;10.072;2022-09-30T08:38:39;11.40;99.90
5011;DHT22;2524;54.364;10.072;2022-09-30T08:41:31;11.40;99.90
5011;DHT22;2524;54.364;10.072;2022-09-30T08:46:58;11.50;99.90
5011;DHT22;2524;54.364;10.072;2022-09-30T08:52:19;11.50;99.90
5011;DHT22;2524;54.364;10.072;2022-09-30T08:54:49;11.50;99.90
5011;DHT22;2524;54.364;10.072;2022-09-30T08:57:16;11.60;99.90
5011;DHT22;2524;54.364;10.072;2022-09-30T09:02:21;11.50;99.90
5011;DHT22;2524;54.364;10.072;2022-09-30T09:04:49;11.60;99.90
5011;DHT22;2524;54.364;10.072;2022-09-30T09:07:52;11.60;99.90
5011;DHT22;2524;54.364;10.072;2022-09-30T09:10:40;11.60;99.90
5011;DHT22;2524;54.364;10.072;2022-09-30T09:21:47;11.60;99.90
5011;DHT22;2524;54.364;10.072;2022-09-30T09:23:52;11.60;99.90
5011;DHT22;2524;54.364;10.072;2022-09-30T09:26:18;11.60;99.90
5011;DHT22;2524;54.364;10.072;2022-09-30T09:29:07;11.60;99.90
5011;DHT22;2524;54.364;10.072;2022-09-30T09:31:37;11.60;99.90
5011;DHT22;2524;54.364;10.072;2022-09-30T09:34:11;11.60;99.90
5011;DHT22;2524;54.364;10.072;2022-09-30T09:42:42;11.70;99.90
5011;DHT22;2524;54.364;10.072;2022-09-30T09:47:56;11.70;99.90
5011;DHT22;2524;54.364;10.072;2022-09-30T09:53:39;11.80;99.90
5011;DHT22;2524;54.364;10.072;2022-09-30T09:56:21;11.80;99.90
5011;DHT22;2524;54.364;10.072;2022-09-30T10:01:35;11.90;99.90
5011;DHT22;2524;54.364;10.072;2022-09-30T10:04:10;11.90;99.90
5011;DHT22;2524;54.364;10.072;2022-09-30T10:12:16;12.00;99.90
5011;DHT22;2524;54.364;10.072;2022-09-30T10:15:03;12.00;99.90
5011;DHT22;2524;54.364;10.072;2022-09-30T10:17:31;12.00;99.90
5011;DHT22;2524;54.364;10.072;2022-09-30T10:20:00;12.10;99.90
5011;DHT22;2524;54.364;10.072;2022-09-30T10:22:29;12.20;99.90
5011;DHT22;2524;54.364;10.072;2022-09-30T10:27:58;12.30;99.90
5011;DHT22;2524;54.364;10.072;2022-09-30T10:30:47;12.40;99.90
5011;DHT22;2524;54.364;10.072;2022-09-30T10:33:27;12.50;99.90
5011;DHT22;2524;54.364;10.072;2022-09-30T10:38:19;12.60;99.90
5011;DHT22;2524;54.364;10.072;2022-09-30T10:40:49;12.80;99.90
5011;DHT22;2524;54.364;10.072;2022-09-30T10:43:36;12.80;99.90
5011;DHT22;2524;54.364;10.072;2022-09-30T10:46:03;12.90;99.90
5011;DHT22;2524;54.364;10.072;2022-09-30T10:48:34;13.10;99.90
5011;DHT22;2524;54.364;10.072;2022-09-30T10:51:01;13.10;99.90
5011;DHT22;2524;54.364;10.072;2022-09-30T10:53:31;13.10;99.90
5011;DHT22;2524;54.364;10.072;2022-09-30T10:55:57;13.20;99.90
5011;DHT22;2524;54.364;10.072;2022-09-30T10:58:49;13.10;99.90
5011;DHT22;2524;54.364;10.072;2022-09-30T11:01:23;13.20;99.90
5011;DHT22;2524;54.364;10.072;2022-09-30T11:06:31;13.40;99.90
5011;DHT22;2524;54.364;10.072;2022-09-30T11:09:13;13.50;99.90
5011;DHT22;2524;54.364;10.072;2022-09-30T11:11:54;13.70;99.90
5011;DHT22;2524;54.364;10.072;2022-09-30T11:22:42;14.20;99.90
5011;DHT22;2524;54.364;10.072;2022-09-30T11:25:16;14.30;99.90
5011;DHT22;2524;54.364;10.072;2022-09-30T11:28:04;14.30;99.90
5011;DHT22;2524;54.364;10.072;2022-09-30T11:38:50;14.00;99.90
5011;DHT22;2524;54.364;10.072;2022-09-30T11:41:41;14.00;99.90
5011;DHT22;2524;54.364;10.072;2022-09-30T11:44:26;14.00;99.90
5011;DHT22;2524;54.364;10.072;2022-09-30T11:47:23;13.90;99.90
5011;DHT22;2524;54.364;10.072;2022-09-30T11:50:16;13.90;99.90
5011;DHT22;2524;54.364;10.072;2022-09-30T11:58:37;13.90;99.90
5011;DHT22;2524;54.364;10.072;2022-09-30T12:01:15;13.90;99.90
5011;DHT22;2524;54.364;10.072;2022-09-30T12:03:46;14.00;99.90
5011;DHT22;2524;54.364;10.072;2022-09-30T12:08:50;14.10;99.90
5011;DHT22;2524;54.364;10.072;2022-09-30T12:11:49;14.30;99.90
5011;DHT22;2524;54.364;10.072;2022-09-30T12:17:01;14.50;99.90
5011;DHT22;2524;54.364;10.072;2022-09-30T12:19:35;14.50;99.90
5011;DHT22;2524;54.364;10.072;2022-09-30T12:22:17;14.60;99.90
5011;DHT22;2524;54.364;10.072;2022-09-30T12:24:45;14.60;99.90
5011;DHT22;2524;54.364;10.072;2022-09-30T12:38:40;14.50;99.90
5011;DHT22;2524;54.364;10.072;2022-09-30T12:49:38;14.40;99.90
5011;DHT22;2524;54.364;10.072;2022-09-30T12:52:11;14.40;99.90
5011;DHT22;2524;54.364;10.072;2022-09-30T12:54:53;14.30;99.90
5011;DHT22;2524;54.364;10.072;2022-09-30T12:57:32;14.30;99.90
5011;DHT22;2524;54.364;10.072;2022-09-30T13:00:04;14.30;99.90
5011;DHT22;2524;54.364;10.072;2022-09-30T13:02:37;14.20;99.90
5011;DHT22;2524;54.364;10.072;2022-09-30T13:10:45;14.30;99.90
5011;DHT22;2524;54.364;10.072;2022-09-30T13:13:19;14.30;99.90
5011;DHT22;2524;54.364;10.072;2022-09-30T13:15:49;14.20;99.90
5011;DHT22;2524;54.364;10.072;2022-09-30T13:23:56;14.20;99.90
5011;DHT22;2524;54.364;10.072;2022-09-30T13:29:25;14.20;99.90
5011;DHT22;2524;54.364;10.072;2022-09-30T13:39:28;14.10;99.90
5011;DHT22;2524;54.364;10.072;2022-09-30T13:42:12;14.20;99.90
5011;DHT22;2524;54.364;10.072;2022-09-30T13:47:48;14.20;99.90
5011;DHT22;2524;54.364;10.072;2022-09-30T13:50:29;14.20;99.90
5011;DHT22;2524;54.364;10.072;2022-09-30T13:53:00;14.20;99.90
5011;DHT22;2524;54.364;10.072;2022-09-30T13:55:34;14.20;99.90
5011;DHT22;2524;54.364;10.072;2022-09-30T14:06:40;14.50;99.90
5011;DHT22;2524;54.364;10.072;2022-09-30T14:12:14;14.60;99.90
5011;DHT22;2524;54.364;10.072;2022-09-30T14:14:53;14.70;99.90
5011;DHT22;2524;54.364;10.072;2022-09-30T14:20:57;14.80;99.90
5011;DHT22;2524;54.364;10.072;2022-09-30T14:23:27;14.80;99.90
5011;DHT22;2524;54.364;10.072;2022-09-30T14:28:59;14.90;99.90
5011;DHT22;2524;54.364;10.072;2022-09-30T14:31:27;14.80;99.90
5011;DHT22;2524;54.364;10.072;2022-09-30T14:33:54;14.80;99.90
5011;DHT22;2524;54.364;10.072;2022-09-30T14:36:21;14.80;99.90
5011;DHT22;2524;54.364;10.072;2022-09-30T14:38:57;14.90;99.90
5011;DHT22;2524;54.364;10.072;2022-09-30T14:41:23;14.90;99.90
5011;DHT22;2524;54.364;10.072;2022-09-30T14:43:54;14.90;99.90
5011;DHT22;2524;54.364;10.072;2022-09-30T14:46:41;15.10;99.90
5011;DHT22;2524;54.364;10.072;2022-09-30T14:49:14;15.10;99.90
5011;DHT22;2524;54.364;10.072;2022-09-30T14:51:43;15.10;99.90
5011;DHT22;2524;54.364;10.072;2022-09-30T14:54:21;15.00;99.90
5011;DHT22;2524;54.364;10.072;2022-09-30T14:56:48;15.00;99.90
5011;DHT22;2524;54.364;10.072;2022-09-30T14:59:31;14.90;99.90
5011;DHT22;2524;54.364;10.072;2022-09-30T15:02:16;14.80;99.90
5011;DHT22;2524;54.364;10.072;2022-09-30T15:04:52;14.80;99.90
5011;DHT22;2524;54.364;10.072;2022-09-30T15:07:19;14.80;99.90
5011;DHT22;2524;54.364;10.072;2022-09-30T15:09:46;14.80;99.90
5011;DHT22;2524;54.364;10.072;2022-09-30T15:12:14;14.80;99.90
5011;DHT22;2524;54.364;10.072;2022-09-30T15:14:55;14.80;99.90
5011;DHT22;2524;54.364;10.072;2022-09-30T15:17:27;14.90;99.90
5011;DHT22;2524;54.364;10.072;2022-09-30T15:19:55;14.80;99.90
5011;DHT22;2524;54.364;10.072;2022-09-30T15:22:23;14.80;99.90
5011;DHT22;2524;54.364;10.072;2022-09-30T15:24:50;14.90;99.90
5011;DHT22;2524;54.364;10.072;2022-09-30T15:27:29;14.80;99.90
5011;DHT22;2524;54.364;10.072;2022-09-30T15:30:03;14.80;99.90
5011;DHT22;2524;54.364;10.072;2022-09-30T15:32:45;14.80;99.90
5011;DHT22;2524;54.364;10.072;2022-09-30T15:35:18;14.80;99.90
5011;DHT22;2524;54.364;10.072;2022-09-30T15:37:46;14.70;99.90
5011;DHT22;2524;54.364;10.072;2022-09-30T15:40:14;14.80;99.90
5011;DHT22;2524;54.364;10.072;2022-09-30T15:43:02;14.70;99.90
5011;DHT22;2524;54.364;10.072;2022-09-30T15:50:46;14.70;99.90
5011;DHT22;2524;54.364;10.072;2022-09-30T15:53:29;14.80;99.90
5011;DHT22;2524;54.364;10.072;2022-09-30T15:58:54;15.00;99.90
5011;DHT22;2524;54.364;10.072;2022-09-30T16:01:37;15.20;99.90
5011;DHT22;2524;54.364;10.072;2022-09-30T16:04:30;15.10;99.90
5011;DHT22;2524;54.364;10.072;2022-09-30T16:07:05;15.20;99.90
5011;DHT22;2524;54.364;10.072;2022-09-30T16:09:37;15.10;99.90
5011;DHT22;2524;54.364;10.072;2022-09-30T16:19:56;14.70;99.90
5011;DHT22;2524;54.364;10.072;2022-09-30T16:25:00;14.60;99.90
5011;DHT22;2524;54.364;10.072;2022-09-30T16:27:29;14.50;99.90
5011;DHT22;2524;54.364;10.072;2022-09-30T16:29:56;14.40;99.90
5011;DHT22;2524;54.364;10.072;2022-09-30T16:32:22;14.40;99.90
5011;DHT22;2524;54.364;10.072;2022-09-30T16:34:48;14.40;99.90
5011;DHT22;2524;54.364;10.072;2022-09-30T16:37:17;14.40;99.90
5011;DHT22;2524;54.364;10.072;2022-09-30T16:39:43;14.30;99.90
5011;DHT22;2524;54.364;10.072;2022-09-30T16:42:13;14.30;99.90
5011;DHT22;2524;54.364;10.072;2022-09-30T16:44:40;14.20;99.90
5011;DHT22;2524;54.364;10.072;2022-09-30T16:47:11;14.10;99.90
5011;DHT22;2524;54.364;10.072;2022-09-30T16:49:37;14.20;99.90
5011;DHT22;2524;54.364;10.072;2022-09-30T16:52:03;14.10;99.90
5011;DHT22;2524;54.364;10.072;2022-09-30T16:54:30;14.00;99.90
5011;DHT22;2524;54.364;10.072;2022-09-30T16:56:56;14.00;99.90
5011;DHT22;2524;54.364;10.072;2022-09-30T16:59:22;14.00;99.90
5011;DHT22;2524;54.364;10.072;2022-09-30T17:01:48;13.90;99.90
5011;DHT22;2524;54.364;10.072;2022-09-30T17:04:13;13.80;99.90
5011;DHT22;2524;54.364;10.072;2022-09-30T17:06:39;13.80;99.90
5011;DHT22;2524;54.364;10.072;2022-09-30T17:09:05;13.90;99.90
5011;DHT22;2524;54.364;10.072;2022-09-30T17:11:32;13.70;99.90
5011;DHT22;2524;54.364;10.072;2022-09-30T17:13:59;13.70;99.90
5011;DHT22;2524;54.364;10.072;2022-09-30T17:16:25;13.70;99.90
5011;DHT22;2524;54.364;10.072;2022-09-30T17:18:51;13.60;99.90
5011;DHT22;2524;54.364;10.072;2022-09-30T17:21:22;13.60;99.90
5011;DHT22;2524;54.364;10.072;2022-09-30T17:23:48;13.60;99.90
5011;DHT22;2524;54.364;10.072;2022-09-30T17:26:13;13.70;99.90
5011;DHT22;2524;54.364;10.072;2022-09-30T17:28:39;13.60;99.90
5011;DHT22;2524;54.364;10.072;2022-09-30T17:31:07;13.50;99.90
5011;DHT22;2524;54.364;10.072;2022-09-30T17:33:35;13.60;99.90
5011;DHT22;2524;54.364;10.072;2022-09-30T17:36:04;13.40;99.90
5011;DHT22;2524;54.364;10.072;2022-09-30T17:38:31;13.40;99.90
5011;DHT22;2524;54.364;10.072;2022-09-30T17:40:57;13.30;99.90
5011;DHT22;2524;54.364;10.072;2022-09-30T17:43:42;13.40;99.90
5011;DHT22;2524;54.364;10.072;2022-09-30T17:46:10;13.30;99.90
5011;DHT22;2524;54.364;10.072;2022-09-30T17:48:35;13.20;99.90
5011;DHT22;2524;54.364;10.072;2022-09-30T17:51:03;13.20;99.90
5011;DHT22;2524;54.364;10.072;2022-09-30T17:53:30;13.20;99.90
5011;DHT22;2524;54.364;10.072;2022-09-30T17:56:19;13.20;99.90
5011;DHT22;2524;54.364;10.072;2022-09-30T17:58:47;13.20;99.90
5011;DHT22;2524;54.364;10.072;2022-09-30T18:01:15;13.20;99.90
5011;DHT22;2524;54.364;10.072;2022-09-30T18:03:41;13.20;99.90
5011;DHT22;2524;54.364;10.072;2022-09-30T18:06:08;13.30;99.90
5011;DHT22;2524;54.364;10.072;2022-09-30T18:08:34;13.10;99.90
5011;DHT22;2524;54.364;10.072;2022-09-30T18:11:00;13.00;99.90
5011;DHT22;2524;54.364;10.072;2022-09-30T18:13:26;13.10;99.90
5011;DHT22;2524;54.364;10.072;2022-09-30T18:15:53;13.00;99.90
5011;DHT22;2524;54.364;10.072;2022-09-30T18:18:19;13.00;99.90
5011;DHT22;2524;54.364;10.072;2022-09-30T18:20:49;13.10;99.90
5011;DHT22;2524;54.364;10.072;2022-09-30T18:23:16;13.00;99.90
5011;DHT22;2524;54.364;10.072;2022-09-30T18:25:47;12.90;99.90
5011;DHT22;2524;54.364;10.072;2022-09-30T18:28:14;13.00;99.90
5011;DHT22;2524;54.364;10.072;2022-09-30T18:30:40;13.00;99.90
5011;DHT22;2524;54.364;10.072;2022-09-30T18:33:07;12.90;99.90
5011;DHT22;2524;54.364;10.072;2022-09-30T18:35:34;12.80;99.90
5011;DHT22;2524;54.364;10.072;2022-09-30T18:38:01;12.90;99.90
5011;DHT22;2524;54.364;10.072;2022-09-30T18:40:28;12.90;99.90
5011;DHT22;2524;54.364;10.072;2022-09-30T18:42:55;12.90;99.90
5011;DHT22;2524;54.364;10.072;2022-09-30T18:45:28;12.80;99.90
5011;DHT22;2524;54.364;10.072;2022-09-30T18:47:56;12.80;99.90
5011;DHT22;2524;54.364;10.072;2022-09-30T18:50:23;12.80;99.90
5011;DHT22;2524;54.364;10.072;2022-09-30T18:52:50;12.80;99.90
5011;DHT22;2524;54.364;10.072;2022-09-30T18:55:17;12.70;99.90
5011;DHT22;2524;54.364;10.072;2022-09-30T18:57:43;12.70;99.90
5011;DHT22;2524;54.364;10.072;2022-09-30T19:00:12;12.60;99.90
5011;DHT22;2524;54.364;10.072;2022-09-30T19:02:38;12.60;99.90
5011;DHT22;2524;54.364;10.072;2022-09-30T19:05:08;12.60;99.90
5011;DHT22;2524;54.364;10.072;2022-09-30T19:07:33;12.60;99.90
5011;DHT22;2524;54.364;10.072;2022-09-30T19:10:00;12.60;99.90
5011;DHT22;2524;54.364;10.072;2022-09-30T19:12:36;12.70;99.90
5011;DHT22;2524;54.364;10.072;2022-09-30T19:15:07;12.50;99.90
5011;DHT22;2524;54.364;10.072;2022-09-30T19:17:33;12.50;99.90
5011;DHT22;2524;54.364;10.072;2022-09-30T19:20:02;12.60;99.90
5011;DHT22;2524;54.364;10.072;2022-09-30T19:22:29;12.50;99.90
5011;DHT22;2524;54.364;10.072;2022-09-30T19:24:54;12.50;99.90
5011;DHT22;2524;54.364;10.072;2022-09-30T19:27:21;12.50;99.90
5011;DHT22;2524;54.364;10.072;2022-09-30T19:29:49;12.40;99.90
5011;DHT22;2524;54.364;10.072;2022-09-30T19:32:16;12.60;99.90
5011;DHT22;2524;54.364;10.072;2022-09-30T19:34:43;12.50;99.90
5011;DHT22;2524;54.364;10.072;2022-09-30T19:37:10;12.40;99.90
5011;DHT22;2524;54.364;10.072;2022-09-30T19:39:36;12.40;99.90
5011;DHT22;2524;54.364;10.072;2022-09-30T19:42:01;12.30;99.90